createdAt,value
2022-10-07T10:38:18.951Z,7.07
2022-10-07T10:41:21.685Z,6.37
2022-10-07T10:44:34.858Z,8.00
2022-10-07T10:47:48.819Z,8.98
2022-10-07T10:50:55.020Z,8.65
2022-10-07T10:53:49.794Z,7.55
2022-10-07T10:59:48.004Z,7.62
2022-10-07T12:45:09.222Z,8.13
2022-10-07T12:47:57.472Z,6.95
2022-10-07T12:50:44.790Z,6.70
2022-10-07T12:53:35.545Z,5.35
2022-10-07T12:56:31.401Z,6.65
2022-10-07T12:59:35.899Z,6.07
2022-10-07T13:02:50.362Z,7.82
2022-10-07T13:05:43.725Z,8.80
2022-10-07T13:09:04.043Z,8.13
2022-10-07T13:11:56.093Z,7.53
2022-10-07T13:14:55.361Z,7.57
2022-10-07T13:18:09.864Z,8.07
2022-10-07T13:26:43.835Z,11.45
2022-10-07T13:29:33.063Z,8.60
2022-10-07T13:32:29.735Z,7.15
2022-10-07T13:35:36.240Z,5.72
2022-10-07T13:38:27.271Z,7.93
2022-10-07T13:41:16.233Z,7.55
2022-10-07T13:44:04.627Z,10.23
2022-10-07T14:01:03.822Z,7.62
2022-10-07T14:04:04.625Z,7.10
2022-10-07T14:09:49.159Z,6.82
2022-10-07T14:26:43.612Z,5.80
2022-10-07T14:41:15.901Z,9.73
2022-10-07T14:44:04.066Z,5.72
2022-10-07T14:46:50.144Z,6.97
2022-10-07T14:49:36.740Z,6.28
2022-10-07T14:52:32.244Z,8.40
2022-10-07T14:55:19.815Z,7.85
2022-10-07T14:58:06.034Z,5.93
2022-10-07T15:00:52.622Z,8.77
2022-10-07T15:03:38.793Z,8.00
2022-10-07T15:06:25.188Z,8.57
2022-10-07T15:09:13.139Z,6.68
2022-10-07T15:11:59.414Z,9.02
2022-10-07T15:14:45.203Z,10.15
2022-10-07T15:17:31.583Z,7.90
2022-10-07T15:20:18.120Z,7.20
2022-10-07T15:23:05.397Z,7.95
2022-10-07T15:25:51.964Z,7.55
2022-10-07T15:28:38.339Z,8.90
2022-10-07T15:31:27.102Z,7.93
2022-10-07T15:34:14.361Z,6.93
2022-10-07T15:37:00.795Z,8.43
2022-10-07T15:39:47.349Z,8.85
2022-10-07T15:42:33.702Z,9.07
2022-10-07T15:45:20.094Z,9.18
2022-10-07T15:48:07.257Z,8.07
2022-10-07T15:50:53.968Z,7.80
2022-10-07T15:53:40.388Z,9.10
2022-10-07T15:56:27.026Z,10.27
2022-10-07T15:59:13.522Z,9.07
2022-10-07T16:02:00.228Z,12.83
2022-10-07T16:04:47.299Z,7.22
2022-10-07T16:07:33.248Z,8.03
2022-10-07T16:10:19.665Z,10.57
2022-10-07T16:13:05.923Z,8.55
2022-10-07T16:16:04.088Z,9.70
2022-10-07T16:18:51.910Z,10.80
2022-10-07T16:21:40.786Z,9.95
2022-10-07T16:24:30.005Z,12.20
2022-10-07T16:27:19.311Z,10.65
2022-10-07T16:30:24.563Z,12.60
2022-10-07T16:33:10.982Z,11.05
2022-10-07T16:35:58.379Z,10.80
2022-10-07T16:38:45.981Z,13.77
2022-10-07T16:41:32.796Z,14.37
2022-10-07T16:44:19.902Z,12.50
2022-10-07T16:47:06.216Z,11.20
2022-10-07T16:49:52.355Z,12.60
2022-10-07T16:52:38.539Z,12.10
2022-10-07T16:55:24.933Z,13.65
2022-10-07T16:58:11.277Z,14.20
2022-10-07T17:01:03.685Z,11.80
2022-10-07T17:03:51.117Z,11.73
2022-10-07T17:06:37.679Z,10.07
2022-10-07T17:09:25.303Z,10.38
2022-10-07T17:12:11.942Z,12.85
2022-10-07T17:14:58.002Z,11.00
2022-10-07T17:17:44.576Z,11.02
2022-10-07T17:20:31.426Z,9.90
2022-10-07T17:23:27.342Z,10.40
2022-10-07T17:26:14.370Z,9.37
2022-10-07T17:29:02.733Z,10.32
2022-10-07T17:31:50.693Z,10.33
2022-10-07T17:34:39.906Z,12.57
2022-10-07T17:37:29.372Z,13.75
2022-10-07T17:40:15.703Z,14.05
2022-10-07T17:43:04.597Z,14.00
2022-10-07T17:45:50.820Z,16.23
2022-10-07T17:48:37.530Z,14.75
2022-10-07T17:51:27.896Z,14.60
2022-10-07T17:54:14.302Z,16.62
2022-10-07T17:57:00.875Z,14.80
2022-10-07T17:59:46.798Z,15.07
2022-10-07T18:02:33.903Z,14.63
2022-10-07T18:05:20.289Z,14.90
2022-10-07T18:08:06.714Z,17.60
2022-10-07T18:10:53.225Z,16.00
2022-10-07T18:13:57.692Z,17.55
2022-10-07T18:16:44.343Z,15.02
2022-10-07T18:19:30.703Z,18.17
2022-10-07T18:22:17.078Z,14.77
2022-10-07T18:25:04.354Z,16.40
2022-10-07T18:27:52.881Z,14.48
2022-10-07T18:30:38.921Z,16.15
2022-10-07T18:33:25.259Z,15.05
2022-10-07T18:36:13.860Z,17.70
2022-10-07T18:39:00.557Z,16.48
2022-10-07T18:41:46.823Z,14.80
2022-10-07T18:44:33.328Z,16.58
2022-10-07T18:47:19.792Z,15.13
2022-10-07T18:50:06.403Z,17.45
2022-10-07T18:52:52.530Z,15.50
2022-10-07T18:55:39.481Z,15.55
2022-10-07T18:58:25.864Z,17.25
2022-10-07T19:01:12.700Z,16.20
2022-10-07T19:04:01.362Z,15.32
2022-10-07T19:06:47.942Z,14.10
2022-10-07T19:09:34.424Z,14.15
2022-10-07T19:12:39.370Z,18.23
2022-10-07T19:15:25.513Z,15.07
2022-10-07T19:18:13.245Z,16.93
2022-10-07T19:20:59.736Z,16.60
2022-10-07T19:23:50.108Z,16.50
2022-10-07T19:26:38.229Z,15.98
2022-10-07T19:29:24.524Z,18.12
2022-10-07T19:32:10.588Z,17.37
2022-10-07T19:34:57.364Z,18.25
2022-10-07T19:37:43.356Z,16.95
2022-10-07T19:40:29.695Z,19.48
2022-10-07T19:43:15.714Z,16.08
2022-10-07T19:46:02.781Z,15.25
2022-10-07T19:48:49.618Z,18.98
2022-10-07T19:51:37.181Z,18.90
2022-10-07T19:54:23.556Z,17.27
2022-10-07T19:57:11.795Z,17.02
2022-10-07T19:59:57.878Z,20.88
2022-10-07T20:02:44.174Z,22.50
2022-10-07T20:05:31.581Z,23.62
2022-10-07T20:08:18.005Z,25.67
2022-10-07T20:11:05.267Z,24.73
2022-10-07T20:13:54.288Z,26.08
2022-10-07T20:16:40.926Z,25.85
2022-10-07T20:19:27.068Z,23.48
2022-10-07T20:22:13.497Z,21.12
2022-10-07T20:25:01.051Z,22.25
2022-10-07T20:27:49.182Z,24.30
2022-10-07T20:30:35.595Z,23.35
2022-10-07T20:33:21.901Z,20.17
2022-10-07T20:36:11.037Z,23.98
2022-10-07T20:39:18.344Z,24.50
2022-10-07T20:42:22.045Z,21.92
2022-10-07T20:45:08.861Z,22.00
2022-10-07T20:47:59.463Z,21.08
2022-10-07T20:50:45.665Z,22.92
2022-10-07T20:53:31.844Z,22.70
2022-10-07T20:56:18.769Z,20.02
2022-10-07T20:59:04.546Z,25.60
2022-10-07T21:01:51.345Z,24.75
2022-10-07T21:04:37.229Z,23.15
2022-10-07T21:07:23.503Z,27.40
2022-10-07T21:10:09.289Z,25.20
2022-10-07T21:12:55.728Z,26.45
2022-10-07T21:15:42.598Z,24.80
2022-10-07T21:18:29.902Z,29.00
2022-10-07T21:21:16.085Z,25.60
2022-10-07T21:24:02.401Z,24.90
2022-10-07T21:26:48.795Z,25.98
2022-10-07T21:29:40.190Z,28.10
2022-10-07T21:32:28.154Z,23.65
2022-10-07T21:35:14.178Z,25.20
2022-10-07T21:38:00.645Z,24.98
2022-10-07T21:40:46.976Z,25.62
2022-10-07T21:43:33.343Z,25.35
2022-10-07T21:46:20.900Z,24.58
2022-10-07T21:49:07.800Z,23.08
2022-10-07T21:51:54.032Z,24.97
2022-10-07T21:54:41.140Z,25.37
2022-10-07T21:57:27.143Z,24.65
2022-10-07T22:00:13.658Z,26.73
2022-10-07T22:03:00.300Z,26.83
2022-10-07T22:05:46.767Z,28.58
2022-10-07T22:08:36.313Z,24.55
2022-10-07T22:11:22.429Z,23.75
2022-10-07T22:14:12.495Z,23.73
2022-10-07T22:16:58.948Z,24.48
2022-10-07T22:19:45.154Z,23.67
2022-10-07T22:22:31.771Z,24.23
2022-10-07T22:25:18.429Z,23.83
2022-10-07T22:28:04.255Z,21.90
2022-10-07T22:30:50.797Z,22.37
2022-10-07T22:33:37.998Z,19.87
2022-10-07T22:36:25.078Z,19.77
2022-10-07T22:39:11.058Z,22.27
2022-10-07T22:41:58.587Z,23.77
2022-10-07T22:44:44.368Z,22.17
2022-10-07T22:47:30.686Z,20.65
2022-10-07T22:50:16.965Z,21.12
2022-10-07T22:53:03.947Z,19.67
2022-10-07T22:55:50.653Z,21.17
2022-10-07T22:58:39.076Z,21.00
2022-10-07T23:01:25.309Z,21.83
2022-10-07T23:04:11.668Z,22.20
2022-10-07T23:06:58.743Z,19.77
2022-10-07T23:09:44.982Z,21.80
2022-10-07T23:12:31.414Z,20.17
2022-10-07T23:15:20.010Z,20.80
2022-10-07T23:18:06.107Z,21.30
2022-10-07T23:21:04.341Z,19.80
2022-10-07T23:23:53.159Z,21.75
2022-10-07T23:26:39.467Z,18.67
2022-10-07T23:29:26.612Z,22.73
2022-10-07T23:32:13.372Z,23.00
2022-10-07T23:34:59.941Z,22.17
2022-10-07T23:37:46.080Z,19.23
2022-10-07T23:40:32.111Z,18.95
2022-10-07T23:43:18.345Z,19.17
2022-10-07T23:46:05.975Z,22.95
2022-10-07T23:48:52.654Z,22.85
2022-10-07T23:51:38.841Z,22.73
2022-10-07T23:54:25.489Z,20.40
2022-10-07T23:57:11.961Z,24.27
2022-10-07T23:59:58.200Z,20.08
